sensor_id;sensor_type;location;lat;lon;timestamp;P1;durP1;ratioP1;P2;durP2;ratioP2
70908;SDS011;58554;52.006;5.926;2023-12-28T00:01:15;6.03;;;3.83;;
70908;SDS011;58554;52.006;5.926;2023-12-28T00:03:44;6.67;;;3.67;;
70908;SDS011;58554;52.006;5.926;2023-12-28T00:06:10;7.88;;;3.90;;
70908;SDS011;58554;52.006;5.926;2023-12-28T00:08:37;7.35;;;3.90;;
70908;SDS011;58554;52.006;5.926;2023-12-28T00:11:03;5.63;;;3.73;;
70908;SDS011;58554;52.006;5.926;2023-12-28T00:13:30;7.20;;;3.72;;
70908;SDS011;58554;52.006;5.926;2023-12-28T00:15:56;9.40;;;3.50;;
70908;SDS011;58554;52.006;5.926;2023-12-28T00:18:23;6.33;;;3.83;;
70908;SDS011;58554;52.006;5.926;2023-12-28T00:20:52;6.35;;;3.83;;
70908;SDS011;58554;52.006;5.926;2023-12-28T00:23:19;7.57;;;3.70;;
70908;SDS011;58554;52.006;5.926;2023-12-28T00:25:45;6.63;;;3.70;;
70908;SDS011;58554;52.006;5.926;2023-12-28T00:28:12;6.70;;;3.63;;
70908;SDS011;58554;52.006;5.926;2023-12-28T00:30:38;5.82;;;3.60;;
70908;SDS011;58554;52.006;5.926;2023-12-28T00:33:05;6.77;;;3.70;;
70908;SDS011;58554;52.006;5.926;2023-12-28T00:35:31;6.93;;;4.50;;
70908;SDS011;58554;52.006;5.926;2023-12-28T00:38:00;6.63;;;3.50;;
70908;SDS011;58554;52.006;5.926;2023-12-28T00:40:27;6.60;;;3.73;;
70908;SDS011;58554;52.006;5.926;2023-12-28T00:42:53;6.20;;;3.57;;
70908;SDS011;58554;52.006;5.926;2023-12-28T00:45:20;7.07;;;4.53;;
70908;SDS011;58554;52.006;5.926;2023-12-28T00:47:46;6.53;;;4.40;;
70908;SDS011;58554;52.006;5.926;2023-12-28T00:50:13;6.60;;;3.75;;
70908;SDS011;58554;52.006;5.926;2023-12-28T00:52:39;9.03;;;4.03;;
70908;SDS011;58554;52.006;5.926;2023-12-28T00:55:09;7.30;;;4.10;;
70908;SDS011;58554;52.006;5.926;2023-12-28T00:57:36;7.00;;;4.20;;
70908;SDS011;58554;52.006;5.926;2023-12-28T01:00:04;7.07;;;4.40;;
70908;SDS011;58554;52.006;5.926;2023-12-28T01:02:32;8.93;;;4.17;;
70908;SDS011;58554;52.006;5.926;2023-12-28T01:04:59;7.73;;;4.27;;
70908;SDS011;58554;52.006;5.926;2023-12-28T01:07:25;7.35;;;4.13;;
70908;SDS011;58554;52.006;5.926;2023-12-28T01:09:51;6.80;;;3.78;;
70908;SDS011;58554;52.006;5.926;2023-12-28T01:12:20;7.37;;;3.90;;
70908;SDS011;58554;52.006;5.926;2023-12-28T01:14:47;7.20;;;4.07;;
70908;SDS011;58554;52.006;5.926;2023-12-28T01:17:14;6.67;;;4.10;;
70908;SDS011;58554;52.006;5.926;2023-12-28T01:19:40;6.60;;;4.03;;
70908;SDS011;58554;52.006;5.926;2023-12-28T01:22:06;8.73;;;4.73;;
70908;SDS011;58554;52.006;5.926;2023-12-28T01:24:33;6.73;;;4.13;;
70908;SDS011;58554;52.006;5.926;2023-12-28T01:26:59;5.57;;;3.73;;
70908;SDS011;58554;52.006;5.926;2023-12-28T01:29:28;6.07;;;4.30;;
70908;SDS011;58554;52.006;5.926;2023-12-28T01:31:55;8.53;;;4.00;;
70908;SDS011;58554;52.006;5.926;2023-12-28T01:34:21;7.13;;;3.92;;
70908;SDS011;58554;52.006;5.926;2023-12-28T01:36:48;7.40;;;4.60;;
70908;SDS011;58554;52.006;5.926;2023-12-28T01:39:14;7.03;;;4.55;;
70908;SDS011;58554;52.006;5.926;2023-12-28T01:41:40;6.60;;;4.30;;
70908;SDS011;58554;52.006;5.926;2023-12-28T01:44:09;5.50;;;3.60;;
70908;SDS011;58554;52.006;5.926;2023-12-28T01:46:38;6.87;;;3.77;;
70908;SDS011;58554;52.006;5.926;2023-12-28T01:49:06;6.73;;;4.10;;
70908;SDS011;58554;52.006;5.926;2023-12-28T01:51:33;6.83;;;4.10;;
70908;SDS011;58554;52.006;5.926;2023-12-28T01:54:01;10.00;;;4.20;;
70908;SDS011;58554;52.006;5.926;2023-12-28T01:56:28;6.40;;;4.15;;
70908;SDS011;58554;52.006;5.926;2023-12-28T01:58:55;7.45;;;4.05;;
70908;SDS011;58554;52.006;5.926;2023-12-28T02:01:21;7.60;;;4.43;;
70908;SDS011;58554;52.006;5.926;2023-12-28T02:03:51;6.73;;;4.70;;
70908;SDS011;58554;52.006;5.926;2023-12-28T02:06:20;6.63;;;4.00;;
70908;SDS011;58554;52.006;5.926;2023-12-28T02:08:49;6.30;;;4.23;;
70908;SDS011;58554;52.006;5.926;2023-12-28T02:11:16;8.32;;;4.47;;
70908;SDS011;58554;52.006;5.926;2023-12-28T02:13:44;9.18;;;4.18;;
70908;SDS011;58554;52.006;5.926;2023-12-28T02:16:13;8.33;;;4.23;;
70908;SDS011;58554;52.006;5.926;2023-12-28T02:18:48;8.97;;;4.40;;
70908;SDS011;58554;52.006;5.926;2023-12-28T02:21:22;6.82;;;4.30;;
70908;SDS011;58554;52.006;5.926;2023-12-28T02:23:51;7.72;;;4.55;;
70908;SDS011;58554;52.006;5.926;2023-12-28T02:26:20;7.73;;;4.40;;
70908;SDS011;58554;52.006;5.926;2023-12-28T02:28:46;7.75;;;4.55;;
70908;SDS011;58554;52.006;5.926;2023-12-28T02:31:14;7.60;;;4.45;;
70908;SDS011;58554;52.006;5.926;2023-12-28T02:33:49;9.07;;;4.80;;
70908;SDS011;58554;52.006;5.926;2023-12-28T02:36:24;8.63;;;4.43;;
70908;SDS011;58554;52.006;5.926;2023-12-28T02:38:53;9.60;;;4.37;;
70908;SDS011;58554;52.006;5.926;2023-12-28T02:41:26;8.80;;;4.27;;
70908;SDS011;58554;52.006;5.926;2023-12-28T02:43:54;7.18;;;4.00;;
70908;SDS011;58554;52.006;5.926;2023-12-28T02:46:20;10.05;;;4.13;;
70908;SDS011;58554;52.006;5.926;2023-12-28T02:48:47;7.53;;;4.00;;
70908;SDS011;58554;52.006;5.926;2023-12-28T02:51:15;6.53;;;3.70;;
70908;SDS011;58554;52.006;5.926;2023-12-28T02:53:41;8.47;;;4.20;;
70908;SDS011;58554;52.006;5.926;2023-12-28T02:56:08;5.57;;;4.18;;
70908;SDS011;58554;52.006;5.926;2023-12-28T02:58:37;9.85;;;4.65;;
70908;SDS011;58554;52.006;5.926;2023-12-28T03:01:03;5.67;;;3.67;;
70908;SDS011;58554;52.006;5.926;2023-12-28T03:03:30;7.10;;;3.80;;
70908;SDS011;58554;52.006;5.926;2023-12-28T03:05:56;9.47;;;4.00;;
70908;SDS011;58554;52.006;5.926;2023-12-28T03:08:23;7.70;;;4.00;;
70908;SDS011;58554;52.006;5.926;2023-12-28T03:10:49;7.93;;;3.80;;
70908;SDS011;58554;52.006;5.926;2023-12-28T03:13:16;9.90;;;3.97;;
70908;SDS011;58554;52.006;5.926;2023-12-28T03:15:45;5.57;;;3.40;;
70908;SDS011;58554;52.006;5.926;2023-12-28T03:18:11;5.20;;;3.60;;
70908;SDS011;58554;52.006;5.926;2023-12-28T03:20:38;7.20;;;3.90;;
70908;SDS011;58554;52.006;5.926;2023-12-28T03:23:04;6.93;;;3.47;;
70908;SDS011;58554;52.006;5.926;2023-12-28T03:25:31;7.53;;;3.10;;
70908;SDS011;58554;52.006;5.926;2023-12-28T03:27:57;6.93;;;3.40;;
70908;SDS011;58554;52.006;5.926;2023-12-28T03:30:24;7.47;;;3.60;;
70908;SDS011;58554;52.006;5.926;2023-12-28T03:32:53;7.50;;;3.50;;
70908;SDS011;58554;52.006;5.926;2023-12-28T03:35:19;6.95;;;3.60;;
70908;SDS011;58554;52.006;5.926;2023-12-28T03:37:46;10.13;;;3.63;;
70908;SDS011;58554;52.006;5.926;2023-12-28T03:40:12;6.22;;;3.25;;
70908;SDS011;58554;52.006;5.926;2023-12-28T03:42:39;5.95;;;3.50;;
70908;SDS011;58554;52.006;5.926;2023-12-28T03:45:07;8.37;;;3.43;;
70908;SDS011;58554;52.006;5.926;2023-12-28T03:47:35;8.10;;;3.40;;
70908;SDS011;58554;52.006;5.926;2023-12-28T03:50:04;8.73;;;3.77;;
70908;SDS011;58554;52.006;5.926;2023-12-28T03:52:32;6.60;;;3.37;;
70908;SDS011;58554;52.006;5.926;2023-12-28T03:54:59;5.27;;;3.30;;
70908;SDS011;58554;52.006;5.926;2023-12-28T03:57:25;6.47;;;3.45;;
70908;SDS011;58554;52.006;5.926;2023-12-28T03:59:52;6.07;;;3.27;;
70908;SDS011;58554;52.006;5.926;2023-12-28T04:02:18;7.05;;;3.50;;
70908;SDS011;58554;52.006;5.926;2023-12-28T04:04:45;8.07;;;3.37;;
70908;SDS011;58554;52.006;5.926;2023-12-28T04:07:14;8.05;;;3.30;;
70908;SDS011;58554;52.006;5.926;2023-12-28T04:09:40;7.43;;;3.40;;
70908;SDS011;58554;52.006;5.926;2023-12-28T04:12:07;7.17;;;3.30;;
70908;SDS011;58554;52.006;5.926;2023-12-28T04:14:34;7.03;;;3.50;;
70908;SDS011;58554;52.006;5.926;2023-12-28T04:17:01;10.07;;;3.30;;
70908;SDS011;58554;52.006;5.926;2023-12-28T04:19:27;7.50;;;3.03;;
70908;SDS011;58554;52.006;5.926;2023-12-28T04:21:54;8.70;;;3.10;;
70908;SDS011;58554;52.006;5.926;2023-12-28T04:24:23;6.28;;;3.30;;
70908;SDS011;58554;52.006;5.926;2023-12-28T04:26:49;4.83;;;2.70;;
70908;SDS011;58554;52.006;5.926;2023-12-28T04:29:16;6.93;;;3.03;;
70908;SDS011;58554;52.006;5.926;2023-12-28T04:31:42;9.77;;;3.08;;
70908;SDS011;58554;52.006;5.926;2023-12-28T04:34:09;8.13;;;2.80;;
70908;SDS011;58554;52.006;5.926;2023-12-28T04:36:39;5.53;;;2.85;;
70908;SDS011;58554;52.006;5.926;2023-12-28T04:39:06;5.83;;;2.83;;
70908;SDS011;58554;52.006;5.926;2023-12-28T04:41:35;6.57;;;2.53;;
70908;SDS011;58554;52.006;5.926;2023-12-28T04:44:02;7.03;;;3.10;;
70908;SDS011;58554;52.006;5.926;2023-12-28T04:46:29;6.80;;;3.03;;
70908;SDS011;58554;52.006;5.926;2023-12-28T04:48:55;7.17;;;2.77;;
70908;SDS011;58554;52.006;5.926;2023-12-28T04:51:22;7.88;;;3.40;;
70908;SDS011;58554;52.006;5.926;2023-12-28T04:53:48;6.43;;;3.00;;
70908;SDS011;58554;52.006;5.926;2023-12-28T04:56:17;7.90;;;3.00;;
70908;SDS011;58554;52.006;5.926;2023-12-28T04:58:47;6.40;;;3.15;;
70908;SDS011;58554;52.006;5.926;2023-12-28T05:01:14;4.38;;;2.58;;
70908;SDS011;58554;52.006;5.926;2023-12-28T05:03:40;9.67;;;3.00;;
70908;SDS011;58554;52.006;5.926;2023-12-28T05:06:07;6.55;;;2.90;;
70908;SDS011;58554;52.006;5.926;2023-12-28T05:08:33;8.27;;;2.97;;
70908;SDS011;58554;52.006;5.926;2023-12-28T05:11:00;8.63;;;2.87;;
70908;SDS011;58554;52.006;5.926;2023-12-28T05:13:26;9.30;;;3.40;;
70908;SDS011;58554;52.006;5.926;2023-12-28T05:15:55;7.50;;;2.90;;
70908;SDS011;58554;52.006;5.926;2023-12-28T05:18:22;7.22;;;3.00;;
70908;SDS011;58554;52.006;5.926;2023-12-28T05:20:48;9.90;;;2.80;;
70908;SDS011;58554;52.006;5.926;2023-12-28T05:23:15;5.30;;;2.27;;
70908;SDS011;58554;52.006;5.926;2023-12-28T05:25:41;8.10;;;2.57;;
70908;SDS011;58554;52.006;5.926;2023-12-28T05:28:08;5.27;;;2.90;;
70908;SDS011;58554;52.006;5.926;2023-12-28T05:30:34;8.17;;;2.50;;
70908;SDS011;58554;52.006;5.926;2023-12-28T05:33:04;12.35;;;3.25;;
70908;SDS011;58554;52.006;5.926;2023-12-28T05:35:30;8.75;;;3.08;;
70908;SDS011;58554;52.006;5.926;2023-12-28T05:37:57;8.95;;;2.58;;
70908;SDS011;58554;52.006;5.926;2023-12-28T05:40:23;8.68;;;2.47;;
70908;SDS011;58554;52.006;5.926;2023-12-28T05:42:49;7.30;;;2.97;;
70908;SDS011;58554;52.006;5.926;2023-12-28T05:45:16;8.03;;;2.80;;
70908;SDS011;58554;52.006;5.926;2023-12-28T05:47:42;10.97;;;3.40;;
70908;SDS011;58554;52.006;5.926;2023-12-28T05:50:12;9.70;;;2.90;;
70908;SDS011;58554;52.006;5.926;2023-12-28T05:52:38;6.60;;;2.60;;
70908;SDS011;58554;52.006;5.926;2023-12-28T05:55:05;5.68;;;2.45;;
70908;SDS011;58554;52.006;5.926;2023-12-28T05:57:33;4.80;;;2.37;;
70908;SDS011;58554;52.006;5.926;2023-12-28T05:59:59;9.80;;;3.17;;
70908;SDS011;58554;52.006;5.926;2023-12-28T06:02:26;5.47;;;2.47;;
70908;SDS011;58554;52.006;5.926;2023-12-28T06:04:52;9.75;;;2.70;;
70908;SDS011;58554;52.006;5.926;2023-12-28T06:07:21;8.63;;;2.77;;
70908;SDS011;58554;52.006;5.926;2023-12-28T06:09:48;7.15;;;2.45;;
70908;SDS011;58554;52.006;5.926;2023-12-28T06:12:15;7.63;;;2.60;;
70908;SDS011;58554;52.006;5.926;2023-12-28T06:14:41;7.97;;;2.20;;
70908;SDS011;58554;52.006;5.926;2023-12-28T06:17:07;8.17;;;2.90;;
70908;SDS011;58554;52.006;5.926;2023-12-28T06:19:34;8.10;;;2.80;;
70908;SDS011;58554;52.006;5.926;2023-12-28T06:22:00;8.53;;;2.23;;
70908;SDS011;58554;52.006;5.926;2023-12-28T06:24:29;7.22;;;2.85;;
70908;SDS011;58554;52.006;5.926;2023-12-28T06:26:56;10.03;;;2.57;;
70908;SDS011;58554;52.006;5.926;2023-12-28T06:29:22;6.83;;;2.50;;
70908;SDS011;58554;52.006;5.926;2023-12-28T06:31:49;9.35;;;2.70;;
70908;SDS011;58554;52.006;5.926;2023-12-28T06:34:15;8.13;;;3.07;;
70908;SDS011;58554;52.006;5.926;2023-12-28T06:36:42;6.28;;;2.70;;
70908;SDS011;58554;52.006;5.926;2023-12-28T06:39:08;6.17;;;2.30;;
70908;SDS011;58554;52.006;5.926;2023-12-28T06:41:37;7.45;;;2.33;;
70908;SDS011;58554;52.006;5.926;2023-12-28T06:44:04;5.87;;;2.30;;
70908;SDS011;58554;52.006;5.926;2023-12-28T06:46:30;5.83;;;2.87;;
70908;SDS011;58554;52.006;5.926;2023-12-28T06:48:57;8.82;;;2.67;;
70908;SDS011;58554;52.006;5.926;2023-12-28T06:51:23;8.52;;;2.60;;
70908;SDS011;58554;52.006;5.926;2023-12-28T06:53:50;9.00;;;2.57;;
70908;SDS011;58554;52.006;5.926;2023-12-28T06:56:16;9.32;;;2.47;;
70908;SDS011;58554;52.006;5.926;2023-12-28T06:58:46;8.80;;;2.55;;
70908;SDS011;58554;52.006;5.926;2023-12-28T07:01:12;6.80;;;2.43;;
70908;SDS011;58554;52.006;5.926;2023-12-28T07:03:39;7.90;;;2.50;;
70908;SDS011;58554;52.006;5.926;2023-12-28T07:06:06;9.97;;;2.30;;
70908;SDS011;58554;52.006;5.926;2023-12-28T07:08:32;6.87;;;2.70;;
70908;SDS011;58554;52.006;5.926;2023-12-28T07:10:59;8.43;;;2.90;;
70908;SDS011;58554;52.006;5.926;2023-12-28T07:13:25;9.50;;;2.97;;
70908;SDS011;58554;52.006;5.926;2023-12-28T07:15:54;7.20;;;2.50;;
70908;SDS011;58554;52.006;5.926;2023-12-28T07:18:21;9.82;;;2.58;;
70908;SDS011;58554;52.006;5.926;2023-12-28T07:20:47;10.83;;;3.20;;
70908;SDS011;58554;52.006;5.926;2023-12-28T07:23:14;9.32;;;2.63;;
70908;SDS011;58554;52.006;5.926;2023-12-28T07:25:41;8.50;;;2.87;;
70908;SDS011;58554;52.006;5.926;2023-12-28T07:28:07;8.77;;;2.90;;
70908;SDS011;58554;52.006;5.926;2023-12-28T07:30:34;9.00;;;3.00;;
70908;SDS011;58554;52.006;5.926;2023-12-28T07:33:03;8.63;;;2.57;;
70908;SDS011;58554;52.006;5.926;2023-12-28T07:35:30;10.33;;;2.47;;
70908;SDS011;58554;52.006;5.926;2023-12-28T07:37:56;11.07;;;2.63;;
70908;SDS011;58554;52.006;5.926;2023-12-28T07:40:23;10.23;;;2.60;;
70908;SDS011;58554;52.006;5.926;2023-12-28T07:42:49;9.73;;;2.50;;
70908;SDS011;58554;52.006;5.926;2023-12-28T07:45:16;6.75;;;2.20;;
70908;SDS011;58554;52.006;5.926;2023-12-28T07:47:42;9.38;;;2.88;;
70908;SDS011;58554;52.006;5.926;2023-12-28T07:50:11;11.67;;;2.63;;
70908;SDS011;58554;52.006;5.926;2023-12-28T07:52:38;15.80;;;3.17;;
70908;SDS011;58554;52.006;5.926;2023-12-28T07:55:04;13.73;;;2.50;;
70908;SDS011;58554;52.006;5.926;2023-12-28T07:57:31;10.00;;;2.90;;
70908;SDS011;58554;52.006;5.926;2023-12-28T07:59:58;8.53;;;2.67;;
70908;SDS011;58554;52.006;5.926;2023-12-28T08:02:24;10.40;;;2.50;;
70908;SDS011;58554;52.006;5.926;2023-12-28T08:04:51;7.63;;;2.60;;
70908;SDS011;58554;52.006;5.926;2023-12-28T08:07:20;8.97;;;2.50;;
70908;SDS011;58554;52.006;5.926;2023-12-28T08:09:46;8.35;;;2.45;;
70908;SDS011;58554;52.006;5.926;2023-12-28T08:12:13;8.13;;;2.40;;
70908;SDS011;58554;52.006;5.926;2023-12-28T08:14:39;9.77;;;2.20;;
70908;SDS011;58554;52.006;5.926;2023-12-28T08:17:06;11.70;;;2.63;;
70908;SDS011;58554;52.006;5.926;2023-12-28T08:19:33;10.55;;;2.33;;
70908;SDS011;58554;52.006;5.926;2023-12-28T08:21:59;10.67;;;2.70;;
70908;SDS011;58554;52.006;5.926;2023-12-28T08:24:28;8.40;;;2.40;;
70908;SDS011;58554;52.006;5.926;2023-12-28T08:26:55;7.23;;;2.10;;
70908;SDS011;58554;52.006;5.926;2023-12-28T08:29:21;11.07;;;2.60;;
70908;SDS011;58554;52.006;5.926;2023-12-28T08:31:48;8.73;;;2.38;;
70908;SDS011;58554;52.006;5.926;2023-12-28T08:34:14;14.93;;;3.03;;
70908;SDS011;58554;52.006;5.926;2023-12-28T08:36:41;9.73;;;2.28;;
70908;SDS011;58554;52.006;5.926;2023-12-28T08:39:07;12.47;;;2.97;;
70908;SDS011;58554;52.006;5.926;2023-12-28T08:41:36;10.40;;;2.90;;
70908;SDS011;58554;52.006;5.926;2023-12-28T08:44:03;10.37;;;2.30;;
70908;SDS011;58554;52.006;5.926;2023-12-28T08:46:29;9.30;;;2.20;;
70908;SDS011;58554;52.006;5.926;2023-12-28T08:48:56;10.37;;;2.77;;
70908;SDS011;58554;52.006;5.926;2023-12-28T08:51:22;10.15;;;2.70;;
70908;SDS011;58554;52.006;5.926;2023-12-28T08:53:49;10.37;;;2.60;;
70908;SDS011;58554;52.006;5.926;2023-12-28T08:56:17;8.32;;;2.50;;
70908;SDS011;58554;52.006;5.926;2023-12-28T08:58:48;13.90;;;2.67;;
70908;SDS011;58554;52.006;5.926;2023-12-28T09:01:16;10.63;;;2.45;;
70908;SDS011;58554;52.006;5.926;2023-12-28T09:03:43;9.73;;;2.50;;
70908;SDS011;58554;52.006;5.926;2023-12-28T09:06:11;9.57;;;2.17;;
70908;SDS011;58554;52.006;5.926;2023-12-28T09:08:37;6.67;;;2.23;;
70908;SDS011;58554;52.006;5.926;2023-12-28T09:11:07;11.05;;;2.47;;
70908;SDS011;58554;52.006;5.926;2023-12-28T09:13:35;11.87;;;2.60;;
70908;SDS011;58554;52.006;5.926;2023-12-28T09:16:05;11.13;;;2.60;;
70908;SDS011;58554;52.006;5.926;2023-12-28T09:18:33;11.60;;;2.03;;
70908;SDS011;58554;52.006;5.926;2023-12-28T09:20:59;11.38;;;2.95;;
70908;SDS011;58554;52.006;5.926;2023-12-28T09:23:26;9.63;;;2.57;;
70908;SDS011;58554;52.006;5.926;2023-12-28T09:25:52;11.35;;;2.10;;
70908;SDS011;58554;52.006;5.926;2023-12-28T09:28:18;9.97;;;2.80;;
70908;SDS011;58554;52.006;5.926;2023-12-28T09:30:45;6.80;;;2.20;;
70908;SDS011;58554;52.006;5.926;2023-12-28T09:33:14;9.93;;;2.20;;
70908;SDS011;58554;52.006;5.926;2023-12-28T09:35:40;14.13;;;2.53;;
70908;SDS011;58554;52.006;5.926;2023-12-28T09:38:07;9.80;;;2.40;;
70908;SDS011;58554;52.006;5.926;2023-12-28T09:40:34;10.40;;;2.20;;
70908;SDS011;58554;52.006;5.926;2023-12-28T09:43:05;10.63;;;2.27;;
70908;SDS011;58554;52.006;5.926;2023-12-28T09:45:39;8.93;;;2.17;;
70908;SDS011;58554;52.006;5.926;2023-12-28T09:48:06;6.40;;;2.22;;
70908;SDS011;58554;52.006;5.926;2023-12-28T09:50:35;12.03;;;2.60;;
70908;SDS011;58554;52.006;5.926;2023-12-28T09:53:02;9.77;;;2.23;;
70908;SDS011;58554;52.006;5.926;2023-12-28T09:55:29;10.27;;;2.50;;
70908;SDS011;58554;52.006;5.926;2023-12-28T09:57:55;9.17;;;2.27;;
70908;SDS011;58554;52.006;5.926;2023-12-28T10:00:26;6.77;;;1.90;;
70908;SDS011;58554;52.006;5.926;2023-12-28T10:02:53;10.37;;;2.60;;
70908;SDS011;58554;52.006;5.926;2023-12-28T10:05:19;10.30;;;2.07;;
70908;SDS011;58554;52.006;5.926;2023-12-28T10:07:50;8.02;;;2.47;;
70908;SDS011;58554;52.006;5.926;2023-12-28T10:10:16;11.43;;;2.20;;
70908;SDS011;58554;52.006;5.926;2023-12-28T10:12:43;7.65;;;2.05;;
70908;SDS011;58554;52.006;5.926;2023-12-28T10:15:11;7.70;;;2.50;;
70908;SDS011;58554;52.006;5.926;2023-12-28T10:17:38;15.20;;;2.40;;
70908;SDS011;58554;52.006;5.926;2023-12-28T10:20:06;8.77;;;2.40;;
70908;SDS011;58554;52.006;5.926;2023-12-28T10:22:33;13.50;;;2.60;;
70908;SDS011;58554;52.006;5.926;2023-12-28T10:25:02;11.53;;;2.40;;
70908;SDS011;58554;52.006;5.926;2023-12-28T10:27:30;9.95;;;2.22;;
70908;SDS011;58554;52.006;5.926;2023-12-28T10:29:58;9.50;;;2.33;;
70908;SDS011;58554;52.006;5.926;2023-12-28T10:32:24;7.47;;;2.17;;
70908;SDS011;58554;52.006;5.926;2023-12-28T10:34:51;13.43;;;2.43;;
70908;SDS011;58554;52.006;5.926;2023-12-28T10:37:18;10.27;;;2.40;;
70908;SDS011;58554;52.006;5.926;2023-12-28T10:39:47;8.27;;;2.73;;
70908;SDS011;58554;52.006;5.926;2023-12-28T10:42:22;8.80;;;2.07;;
70908;SDS011;58554;52.006;5.926;2023-12-28T10:44:59;8.02;;;2.42;;
70908;SDS011;58554;52.006;5.926;2023-12-28T10:47:31;11.03;;;2.33;;
70908;SDS011;58554;52.006;5.926;2023-12-28T10:50:00;11.75;;;2.30;;
70908;SDS011;58554;52.006;5.926;2023-12-28T10:52:30;9.77;;;2.47;;
70908;SDS011;58554;52.006;5.926;2023-12-28T10:55:08;9.68;;;2.00;;
70908;SDS011;58554;52.006;5.926;2023-12-28T10:58:01;8.07;;;2.13;;
70908;SDS011;58554;52.006;5.926;2023-12-28T11:00:37;4.72;;;2.00;;
70908;SDS011;58554;52.006;5.926;2023-12-28T11:03:16;8.83;;;2.10;;
70908;SDS011;58554;52.006;5.926;2023-12-28T11:05:53;10.05;;;2.38;;
70908;SDS011;58554;52.006;5.926;2023-12-28T11:08:23;13.00;;;2.77;;
70908;SDS011;58554;52.006;5.926;2023-12-28T11:10:50;7.85;;;2.30;;
70908;SDS011;58554;52.006;5.926;2023-12-28T11:13:20;7.83;;;2.00;;
70908;SDS011;58554;52.006;5.926;2023-12-28T11:15:47;7.60;;;1.95;;
70908;SDS011;58554;52.006;5.926;2023-12-28T11:18:15;12.80;;;2.57;;
70908;SDS011;58554;52.006;5.926;2023-12-28T11:20:42;11.37;;;2.20;;
70908;SDS011;58554;52.006;5.926;2023-12-28T11:23:10;10.67;;;2.67;;
70908;SDS011;58554;52.006;5.926;2023-12-28T11:25:39;9.93;;;2.27;;
70908;SDS011;58554;52.006;5.926;2023-12-28T11:28:08;9.70;;;2.33;;
70908;SDS011;58554;52.006;5.926;2023-12-28T11:30:41;9.63;;;2.43;;
70908;SDS011;58554;52.006;5.926;2023-12-28T11:33:07;10.60;;;2.70;;
70908;SDS011;58554;52.006;5.926;2023-12-28T11:35:36;10.83;;;2.73;;
70908;SDS011;58554;52.006;5.926;2023-12-28T11:38:06;12.20;;;2.40;;
70908;SDS011;58554;52.006;5.926;2023-12-28T11:40:40;9.07;;;2.43;;
70908;SDS011;58554;52.006;5.926;2023-12-28T11:43:14;10.43;;;2.20;;
70908;SDS011;58554;52.006;5.926;2023-12-28T11:45:49;9.70;;;2.55;;
70908;SDS011;58554;52.006;5.926;2023-12-28T11:48:23;13.87;;;2.60;;
70908;SDS011;58554;52.006;5.926;2023-12-28T11:50:52;10.00;;;2.33;;
70908;SDS011;58554;52.006;5.926;2023-12-28T11:53:22;10.70;;;2.33;;
70908;SDS011;58554;52.006;5.926;2023-12-28T11:55:50;13.32;;;3.00;;
70908;SDS011;58554;52.006;5.926;2023-12-28T11:58:17;10.47;;;2.87;;
70908;SDS011;58554;52.006;5.926;2023-12-28T12:00:45;11.38;;;2.20;;
70908;SDS011;58554;52.006;5.926;2023-12-28T12:03:15;5.80;;;1.70;;
70908;SDS011;58554;52.006;5.926;2023-12-28T12:05:42;10.73;;;2.30;;
70908;SDS011;58554;52.006;5.926;2023-12-28T12:08:09;15.38;;;3.10;;
70908;SDS011;58554;52.006;5.926;2023-12-28T12:10:36;7.30;;;2.00;;
70908;SDS011;58554;52.006;5.926;2023-12-28T12:13:02;10.15;;;2.20;;
70908;SDS011;58554;52.006;5.926;2023-12-28T12:15:29;13.65;;;2.40;;
70908;SDS011;58554;52.006;5.926;2023-12-28T12:17:56;13.87;;;2.30;;
70908;SDS011;58554;52.006;5.926;2023-12-28T12:20:25;10.45;;;2.60;;
70908;SDS011;58554;52.006;5.926;2023-12-28T12:22:52;14.77;;;2.67;;
70908;SDS011;58554;52.006;5.926;2023-12-28T12:25:19;10.00;;;2.20;;
70908;SDS011;58554;52.006;5.926;2023-12-28T12:27:45;15.03;;;3.07;;
70908;SDS011;58554;52.006;5.926;2023-12-28T12:30:12;14.70;;;2.40;;
70908;SDS011;58554;52.006;5.926;2023-12-28T12:32:39;9.80;;;2.33;;
70908;SDS011;58554;52.006;5.926;2023-12-28T12:35:06;11.90;;;2.50;;
70908;SDS011;58554;52.006;5.926;2023-12-28T12:37:36;13.27;;;3.03;;
70908;SDS011;58554;52.006;5.926;2023-12-28T12:40:03;11.07;;;2.43;;
70908;SDS011;58554;52.006;5.926;2023-12-28T12:42:31;14.50;;;3.05;;
70908;SDS011;58554;52.006;5.926;2023-12-28T12:44:58;10.63;;;2.13;;
70908;SDS011;58554;52.006;5.926;2023-12-28T12:47:25;10.37;;;2.60;;
70908;SDS011;58554;52.006;5.926;2023-12-28T12:49:51;13.10;;;3.77;;
70908;SDS011;58554;52.006;5.926;2023-12-28T12:52:19;8.77;;;2.67;;
70908;SDS011;58554;52.006;5.926;2023-12-28T12:54:55;12.13;;;2.28;;
70908;SDS011;58554;52.006;5.926;2023-12-28T12:57:22;13.23;;;2.40;;
70908;SDS011;58554;52.006;5.926;2023-12-28T12:59:50;14.23;;;2.35;;
70908;SDS011;58554;52.006;5.926;2023-12-28T13:02:16;8.87;;;2.23;;
70908;SDS011;58554;52.006;5.926;2023-12-28T13:04:43;14.43;;;2.63;;
70908;SDS011;58554;52.006;5.926;2023-12-28T13:07:10;10.43;;;2.83;;
70908;SDS011;58554;52.006;5.926;2023-12-28T13:09:36;11.67;;;2.60;;
70908;SDS011;58554;52.006;5.926;2023-12-28T13:12:06;10.65;;;2.67;;
70908;SDS011;58554;52.006;5.926;2023-12-28T13:14:33;9.70;;;2.60;;
70908;SDS011;58554;52.006;5.926;2023-12-28T13:17:00;11.45;;;2.90;;
70908;SDS011;58554;52.006;5.926;2023-12-28T13:19:27;10.70;;;2.73;;
70908;SDS011;58554;52.006;5.926;2023-12-28T13:21:53;11.38;;;2.20;;
70908;SDS011;58554;52.006;5.926;2023-12-28T13:24:20;13.03;;;2.80;;
70908;SDS011;58554;52.006;5.926;2023-12-28T13:26:46;11.98;;;2.60;;
70908;SDS011;58554;52.006;5.926;2023-12-28T13:29:15;8.30;;;2.40;;
70908;SDS011;58554;52.006;5.926;2023-12-28T13:31:42;11.85;;;2.50;;
70908;SDS011;58554;52.006;5.926;2023-12-28T13:34:08;7.10;;;2.40;;
70908;SDS011;58554;52.006;5.926;2023-12-28T13:36:35;12.68;;;2.58;;
70908;SDS011;58554;52.006;5.926;2023-12-28T13:39:01;9.40;;;2.50;;
70908;SDS011;58554;52.006;5.926;2023-12-28T13:41:27;9.57;;;2.43;;
70908;SDS011;58554;52.006;5.926;2023-12-28T13:43:54;9.07;;;2.27;;
70908;SDS011;58554;52.006;5.926;2023-12-28T13:46:23;14.00;;;2.53;;
70908;SDS011;58554;52.006;5.926;2023-12-28T13:48:49;13.10;;;2.40;;
70908;SDS011;58554;52.006;5.926;2023-12-28T13:51:16;12.63;;;2.67;;
70908;SDS011;58554;52.006;5.926;2023-12-28T13:53:42;11.70;;;2.78;;
70908;SDS011;58554;52.006;5.926;2023-12-28T13:56:09;8.77;;;2.70;;
70908;SDS011;58554;52.006;5.926;2023-12-28T13:58:35;9.63;;;3.15;;
70908;SDS011;58554;52.006;5.926;2023-12-28T14:01:02;10.23;;;2.83;;
70908;SDS011;58554;52.006;5.926;2023-12-28T14:03:31;10.07;;;2.35;;
70908;SDS011;58554;52.006;5.926;2023-12-28T14:05:58;10.17;;;2.77;;
70908;SDS011;58554;52.006;5.926;2023-12-28T14:08:24;8.30;;;2.30;;
70908;SDS011;58554;52.006;5.926;2023-12-28T14:10:50;8.80;;;3.20;;
70908;SDS011;58554;52.006;5.926;2023-12-28T14:13:17;7.57;;;2.70;;
70908;SDS011;58554;52.006;5.926;2023-12-28T14:15:43;10.80;;;2.70;;
70908;SDS011;58554;52.006;5.926;2023-12-28T14:18:10;10.63;;;2.50;;
70908;SDS011;58554;52.006;5.926;2023-12-28T14:20:39;7.72;;;2.63;;
70908;SDS011;58554;52.006;5.926;2023-12-28T14:23:05;11.18;;;2.50;;
70908;SDS011;58554;52.006;5.926;2023-12-28T14:25:33;10.80;;;3.10;;
70908;SDS011;58554;52.006;5.926;2023-12-28T14:28:00;9.90;;;2.80;;
70908;SDS011;58554;52.006;5.926;2023-12-28T14:30:28;10.57;;;3.17;;
70908;SDS011;58554;52.006;5.926;2023-12-28T14:32:56;12.93;;;2.80;;
70908;SDS011;58554;52.006;5.926;2023-12-28T14:35:23;9.77;;;2.57;;
70908;SDS011;58554;52.006;5.926;2023-12-28T14:37:53;11.88;;;3.03;;
70908;SDS011;58554;52.006;5.926;2023-12-28T14:40:20;15.33;;;2.67;;
70908;SDS011;58554;52.006;5.926;2023-12-28T14:42:46;16.33;;;2.95;;
70908;SDS011;58554;52.006;5.926;2023-12-28T14:45:13;11.40;;;3.00;;